sensor_id;sensor_type;location;lat;lon;timestamp;P1;durP1;ratioP1;P2;durP2;ratioP2
69754;SDS011;57023;52.218;5.158;2023-02-11T00:01:46;8.57;;;2.83;;
69754;SDS011;57023;52.218;5.158;2023-02-11T00:04:12;12.65;;;3.90;;
69754;SDS011;57023;52.218;5.158;2023-02-11T00:06:37;11.52;;;3.63;;
69754;SDS011;57023;52.218;5.158;2023-02-11T00:09:02;14.60;;;3.88;;
69754;SDS011;57023;52.218;5.158;2023-02-11T00:11:28;10.85;;;3.45;;
69754;SDS011;57023;52.218;5.158;2023-02-11T00:13:54;11.82;;;3.60;;
69754;SDS011;57023;52.218;5.158;2023-02-11T00:16:24;10.00;;;3.58;;
69754;SDS011;57023;52.218;5.158;2023-02-11T00:18:49;11.48;;;3.38;;
69754;SDS011;57023;52.218;5.158;2023-02-11T00:21:17;12.52;;;3.58;;
69754;SDS011;57023;52.218;5.158;2023-02-11T00:23:45;13.63;;;3.85;;
69754;SDS011;57023;52.218;5.158;2023-02-11T00:26:14;10.43;;;3.20;;
69754;SDS011;57023;52.218;5.158;2023-02-11T00:28:41;12.45;;;3.42;;
69754;SDS011;57023;52.218;5.158;2023-02-11T00:31:07;7.82;;;3.17;;
69754;SDS011;57023;52.218;5.158;2023-02-11T00:33:32;10.32;;;3.40;;
69754;SDS011;57023;52.218;5.158;2023-02-11T00:35:57;14.05;;;3.80;;
69754;SDS011;57023;52.218;5.158;2023-02-11T00:38:23;10.90;;;4.15;;
69754;SDS011;57023;52.218;5.158;2023-02-11T00:40:48;10.95;;;4.25;;
69754;SDS011;57023;52.218;5.158;2023-02-11T00:43:13;10.77;;;3.78;;
69754;SDS011;57023;52.218;5.158;2023-02-11T00:45:39;13.23;;;3.65;;
69754;SDS011;57023;52.218;5.158;2023-02-11T00:48:04;13.75;;;3.58;;
69754;SDS011;57023;52.218;5.158;2023-02-11T00:50:29;9.15;;;3.33;;
69754;SDS011;57023;52.218;5.158;2023-02-11T00:52:55;9.65;;;3.47;;
69754;SDS011;57023;52.218;5.158;2023-02-11T00:55:20;11.25;;;3.50;;
69754;SDS011;57023;52.218;5.158;2023-02-11T00:57:45;10.75;;;3.53;;
69754;SDS011;57023;52.218;5.158;2023-02-11T01:00:11;12.23;;;3.53;;
69754;SDS011;57023;52.218;5.158;2023-02-11T01:02:37;11.82;;;3.45;;
69754;SDS011;57023;52.218;5.158;2023-02-11T01:05:03;7.43;;;3.03;;
69754;SDS011;57023;52.218;5.158;2023-02-11T01:07:29;15.20;;;4.10;;
69754;SDS011;57023;52.218;5.158;2023-02-11T01:09:55;14.40;;;4.28;;
69754;SDS011;57023;52.218;5.158;2023-02-11T01:12:20;11.30;;;3.45;;
69754;SDS011;57023;52.218;5.158;2023-02-11T01:14:46;8.85;;;3.33;;
69754;SDS011;57023;52.218;5.158;2023-02-11T01:17:11;11.10;;;3.80;;
69754;SDS011;57023;52.218;5.158;2023-02-11T01:19:37;11.75;;;3.38;;
69754;SDS011;57023;52.218;5.158;2023-02-11T01:22:02;7.13;;;3.28;;
69754;SDS011;57023;52.218;5.158;2023-02-11T01:24:28;14.35;;;3.25;;
69754;SDS011;57023;52.218;5.158;2023-02-11T01:26:53;16.83;;;4.35;;
69754;SDS011;57023;52.218;5.158;2023-02-11T01:29:19;17.88;;;4.18;;
69754;SDS011;57023;52.218;5.158;2023-02-11T01:31:45;14.57;;;4.28;;
69754;SDS011;57023;52.218;5.158;2023-02-11T01:34:10;10.80;;;4.13;;
69754;SDS011;57023;52.218;5.158;2023-02-11T01:36:35;17.63;;;4.25;;
69754;SDS011;57023;52.218;5.158;2023-02-11T01:39:01;16.33;;;4.32;;
69754;SDS011;57023;52.218;5.158;2023-02-11T01:41:26;15.55;;;4.43;;
69754;SDS011;57023;52.218;5.158;2023-02-11T01:43:51;11.15;;;4.35;;
69754;SDS011;57023;52.218;5.158;2023-02-11T01:48:53;15.63;;;4.35;;
69754;SDS011;57023;52.218;5.158;2023-02-11T01:51:21;11.45;;;4.15;;
69754;SDS011;57023;52.218;5.158;2023-02-11T01:53:49;12.85;;;4.20;;
69754;SDS011;57023;52.218;5.158;2023-02-11T01:56:34;12.65;;;4.40;;
69754;SDS011;57023;52.218;5.158;2023-02-11T01:59:43;8.90;;;3.40;;
69754;SDS011;57023;52.218;5.158;2023-02-11T02:02:19;13.63;;;4.35;;
69754;SDS011;57023;52.218;5.158;2023-02-11T02:04:49;12.23;;;3.50;;
69754;SDS011;57023;52.218;5.158;2023-02-11T02:07:24;12.38;;;4.45;;
69754;SDS011;57023;52.218;5.158;2023-02-11T02:09:59;12.85;;;3.83;;
69754;SDS011;57023;52.218;5.158;2023-02-11T02:12:32;12.88;;;4.22;;
69754;SDS011;57023;52.218;5.158;2023-02-11T02:20:55;13.95;;;4.60;;
69754;SDS011;57023;52.218;5.158;2023-02-11T02:34:43;11.77;;;4.20;;
69754;SDS011;57023;52.218;5.158;2023-02-11T02:37:55;13.07;;;4.23;;
69754;SDS011;57023;52.218;5.158;2023-02-11T02:40:31;11.18;;;3.53;;
69754;SDS011;57023;52.218;5.158;2023-02-11T02:42:59;9.10;;;3.97;;
69754;SDS011;57023;52.218;5.158;2023-02-11T02:45:25;9.70;;;4.07;;
69754;SDS011;57023;52.218;5.158;2023-02-11T02:47:51;8.75;;;3.17;;
69754;SDS011;57023;52.218;5.158;2023-02-11T02:50:16;15.15;;;5.35;;
69754;SDS011;57023;52.218;5.158;2023-02-11T02:52:50;15.38;;;4.30;;
69754;SDS011;57023;52.218;5.158;2023-02-11T02:55:41;15.20;;;4.80;;
69754;SDS011;57023;52.218;5.158;2023-02-11T03:06:29;9.85;;;4.22;;
69754;SDS011;57023;52.218;5.158;2023-02-11T03:09:07;12.82;;;4.45;;
69754;SDS011;57023;52.218;5.158;2023-02-11T03:11:37;9.57;;;3.60;;
69754;SDS011;57023;52.218;5.158;2023-02-11T03:14:04;13.47;;;4.40;;
69754;SDS011;57023;52.218;5.158;2023-02-11T03:16:31;12.40;;;4.43;;
69754;SDS011;57023;52.218;5.158;2023-02-11T03:19:03;10.93;;;4.65;;
69754;SDS011;57023;52.218;5.158;2023-02-11T03:21:30;10.90;;;4.68;;
69754;SDS011;57023;52.218;5.158;2023-02-11T03:23:57;15.82;;;4.80;;
69754;SDS011;57023;52.218;5.158;2023-02-11T03:26:29;12.18;;;4.18;;
69754;SDS011;57023;52.218;5.158;2023-02-11T03:29:05;27.67;;;5.20;;
69754;SDS011;57023;52.218;5.158;2023-02-11T03:31:34;12.82;;;4.68;;
69754;SDS011;57023;52.218;5.158;2023-02-11T03:34:13;14.23;;;4.75;;
69754;SDS011;57023;52.218;5.158;2023-02-11T03:36:45;12.95;;;4.28;;
69754;SDS011;57023;52.218;5.158;2023-02-11T03:39:16;10.02;;;4.13;;
69754;SDS011;57023;52.218;5.158;2023-02-11T03:41:44;14.45;;;5.03;;
69754;SDS011;57023;52.218;5.158;2023-02-11T03:44:11;14.13;;;4.97;;
69754;SDS011;57023;52.218;5.158;2023-02-11T03:49:07;10.87;;;4.33;;
69754;SDS011;57023;52.218;5.158;2023-02-11T03:51:34;11.32;;;5.30;;
69754;SDS011;57023;52.218;5.158;2023-02-11T03:54:01;12.45;;;4.90;;
69754;SDS011;57023;52.218;5.158;2023-02-11T03:56:28;11.88;;;4.63;;
69754;SDS011;57023;52.218;5.158;2023-02-11T03:58:56;7.68;;;3.70;;
69754;SDS011;57023;52.218;5.158;2023-02-11T04:01:21;14.55;;;5.45;;
69754;SDS011;57023;52.218;5.158;2023-02-11T04:03:47;16.27;;;5.97;;
69754;SDS011;57023;52.218;5.158;2023-02-11T04:06:12;12.68;;;5.22;;
69754;SDS011;57023;52.218;5.158;2023-02-11T04:08:37;14.80;;;6.07;;
69754;SDS011;57023;52.218;5.158;2023-02-11T04:11:03;13.77;;;5.50;;
69754;SDS011;57023;52.218;5.158;2023-02-11T04:13:28;14.10;;;4.90;;
69754;SDS011;57023;52.218;5.158;2023-02-11T04:15:53;19.42;;;6.45;;
69754;SDS011;57023;52.218;5.158;2023-02-11T04:18:19;14.95;;;5.90;;
69754;SDS011;57023;52.218;5.158;2023-02-11T04:20:44;8.35;;;4.22;;
69754;SDS011;57023;52.218;5.158;2023-02-11T04:23:09;11.90;;;5.10;;
69754;SDS011;57023;52.218;5.158;2023-02-11T04:25:35;12.80;;;4.78;;
69754;SDS011;57023;52.218;5.158;2023-02-11T04:28:00;18.42;;;6.00;;
69754;SDS011;57023;52.218;5.158;2023-02-11T04:30:26;13.10;;;5.45;;
69754;SDS011;57023;52.218;5.158;2023-02-11T04:32:51;19.17;;;6.93;;
69754;SDS011;57023;52.218;5.158;2023-02-11T04:35:18;13.57;;;5.43;;
69754;SDS011;57023;52.218;5.158;2023-02-11T04:37:43;13.93;;;5.40;;
69754;SDS011;57023;52.218;5.158;2023-02-11T04:40:08;11.88;;;5.10;;
69754;SDS011;57023;52.218;5.158;2023-02-11T04:42:34;15.90;;;5.75;;
69754;SDS011;57023;52.218;5.158;2023-02-11T04:44:59;15.50;;;6.32;;
69754;SDS011;57023;52.218;5.158;2023-02-11T04:47:25;18.92;;;7.72;;
69754;SDS011;57023;52.218;5.158;2023-02-11T04:49:51;19.63;;;7.38;;
69754;SDS011;57023;52.218;5.158;2023-02-11T04:52:16;21.00;;;7.82;;
69754;SDS011;57023;52.218;5.158;2023-02-11T04:54:41;15.10;;;6.55;;
69754;SDS011;57023;52.218;5.158;2023-02-11T04:57:06;14.80;;;6.93;;
69754;SDS011;57023;52.218;5.158;2023-02-11T04:59:32;20.30;;;7.47;;
69754;SDS011;57023;52.218;5.158;2023-02-11T05:01:57;17.27;;;6.90;;
69754;SDS011;57023;52.218;5.158;2023-02-11T05:04:23;21.13;;;7.50;;
69754;SDS011;57023;52.218;5.158;2023-02-11T05:06:48;18.10;;;8.00;;
69754;SDS011;57023;52.218;5.158;2023-02-11T05:09:13;18.17;;;6.80;;
69754;SDS011;57023;52.218;5.158;2023-02-11T05:11:39;19.08;;;8.20;;
69754;SDS011;57023;52.218;5.158;2023-02-11T05:14:04;17.77;;;8.02;;
69754;SDS011;57023;52.218;5.158;2023-02-11T05:16:30;21.27;;;8.82;;
69754;SDS011;57023;52.218;5.158;2023-02-11T05:18:56;15.50;;;7.60;;
69754;SDS011;57023;52.218;5.158;2023-02-11T05:21:22;16.92;;;7.28;;
69754;SDS011;57023;52.218;5.158;2023-02-11T05:23:47;17.33;;;7.03;;
69754;SDS011;57023;52.218;5.158;2023-02-11T05:26:13;18.80;;;8.18;;
69754;SDS011;57023;52.218;5.158;2023-02-11T05:28:38;18.40;;;8.45;;
69754;SDS011;57023;52.218;5.158;2023-02-11T05:31:05;15.70;;;8.23;;
69754;SDS011;57023;52.218;5.158;2023-02-11T05:33:31;24.92;;;9.07;;
69754;SDS011;57023;52.218;5.158;2023-02-11T05:35:57;20.50;;;8.75;;
69754;SDS011;57023;52.218;5.158;2023-02-11T05:38:23;18.20;;;8.68;;
69754;SDS011;57023;52.218;5.158;2023-02-11T05:40:49;14.85;;;7.82;;
69754;SDS011;57023;52.218;5.158;2023-02-11T05:43:15;16.55;;;7.47;;
69754;SDS011;57023;52.218;5.158;2023-02-11T05:45:40;17.00;;;8.20;;
69754;SDS011;57023;52.218;5.158;2023-02-11T05:48:05;19.38;;;8.70;;
69754;SDS011;57023;52.218;5.158;2023-02-11T05:50:30;18.33;;;9.32;;
69754;SDS011;57023;52.218;5.158;2023-02-11T05:52:56;22.08;;;9.43;;
69754;SDS011;57023;52.218;5.158;2023-02-11T05:55:21;21.70;;;8.95;;
69754;SDS011;57023;52.218;5.158;2023-02-11T05:57:46;22.90;;;10.18;;
69754;SDS011;57023;52.218;5.158;2023-02-11T06:00:12;18.90;;;9.82;;
69754;SDS011;57023;52.218;5.158;2023-02-11T06:02:38;21.52;;;9.65;;
69754;SDS011;57023;52.218;5.158;2023-02-11T06:05:04;20.17;;;10.05;;
69754;SDS011;57023;52.218;5.158;2023-02-11T06:07:29;19.48;;;9.85;;
69754;SDS011;57023;52.218;5.158;2023-02-11T06:09:54;22.00;;;9.88;;
69754;SDS011;57023;52.218;5.158;2023-02-11T06:12:20;16.15;;;7.00;;
69754;SDS011;57023;52.218;5.158;2023-02-11T06:14:45;18.77;;;9.80;;
69754;SDS011;57023;52.218;5.158;2023-02-11T06:17:10;20.27;;;10.10;;
69754;SDS011;57023;52.218;5.158;2023-02-11T06:19:36;23.52;;;10.60;;
69754;SDS011;57023;52.218;5.158;2023-02-11T06:22:01;23.88;;;10.60;;
69754;SDS011;57023;52.218;5.158;2023-02-11T06:24:26;19.58;;;10.32;;
69754;SDS011;57023;52.218;5.158;2023-02-11T06:26:52;22.13;;;10.52;;
69754;SDS011;57023;52.218;5.158;2023-02-11T06:29:17;21.90;;;10.75;;
69754;SDS011;57023;52.218;5.158;2023-02-11T06:31:42;25.20;;;11.43;;
69754;SDS011;57023;52.218;5.158;2023-02-11T06:34:08;18.88;;;10.38;;
69754;SDS011;57023;52.218;5.158;2023-02-11T06:36:34;21.15;;;11.30;;
69754;SDS011;57023;52.218;5.158;2023-02-11T06:39:00;19.10;;;9.93;;
69754;SDS011;57023;52.218;5.158;2023-02-11T06:41:25;23.95;;;10.80;;
69754;SDS011;57023;52.218;5.158;2023-02-11T06:43:51;18.63;;;9.77;;
69754;SDS011;57023;52.218;5.158;2023-02-11T06:46:17;21.80;;;10.80;;
69754;SDS011;57023;52.218;5.158;2023-02-11T06:48:42;23.73;;;11.20;;
69754;SDS011;57023;52.218;5.158;2023-02-11T06:51:08;20.10;;;10.85;;
69754;SDS011;57023;52.218;5.158;2023-02-11T06:53:35;24.02;;;11.25;;
69754;SDS011;57023;52.218;5.158;2023-02-11T06:56:06;18.10;;;9.13;;
69754;SDS011;57023;52.218;5.158;2023-02-11T06:58:32;24.65;;;10.63;;
69754;SDS011;57023;52.218;5.158;2023-02-11T07:00:58;24.42;;;11.68;;
69754;SDS011;57023;52.218;5.158;2023-02-11T07:03:24;27.38;;;12.43;;
69754;SDS011;57023;52.218;5.158;2023-02-11T07:05:49;25.63;;;11.40;;
69754;SDS011;57023;52.218;5.158;2023-02-11T07:08:15;22.25;;;10.93;;
69754;SDS011;57023;52.218;5.158;2023-02-11T07:10:40;21.20;;;10.38;;
69754;SDS011;57023;52.218;5.158;2023-02-11T07:13:05;24.88;;;12.27;;
69754;SDS011;57023;52.218;5.158;2023-02-11T07:15:31;20.70;;;11.75;;
69754;SDS011;57023;52.218;5.158;2023-02-11T07:17:56;23.25;;;12.80;;
69754;SDS011;57023;52.218;5.158;2023-02-11T07:20:22;25.05;;;12.43;;
69754;SDS011;57023;52.218;5.158;2023-02-11T07:22:47;24.13;;;12.23;;
69754;SDS011;57023;52.218;5.158;2023-02-11T07:25:13;20.58;;;11.60;;
69754;SDS011;57023;52.218;5.158;2023-02-11T07:27:38;23.58;;;12.63;;
69754;SDS011;57023;52.218;5.158;2023-02-11T07:30:03;24.35;;;12.23;;
69754;SDS011;57023;52.218;5.158;2023-02-11T07:32:29;19.73;;;11.75;;
69754;SDS011;57023;52.218;5.158;2023-02-11T07:34:54;26.77;;;13.10;;
69754;SDS011;57023;52.218;5.158;2023-02-11T07:37:20;27.30;;;12.82;;
69754;SDS011;57023;52.218;5.158;2023-02-11T07:39:45;22.65;;;11.13;;
69754;SDS011;57023;52.218;5.158;2023-02-11T07:42:10;26.77;;;12.38;;
69754;SDS011;57023;52.218;5.158;2023-02-11T07:44:36;26.45;;;12.98;;
69754;SDS011;57023;52.218;5.158;2023-02-11T07:47:01;24.40;;;11.73;;
69754;SDS011;57023;52.218;5.158;2023-02-11T07:49:27;26.67;;;12.20;;
69754;SDS011;57023;52.218;5.158;2023-02-11T07:51:53;20.27;;;11.10;;
69754;SDS011;57023;52.218;5.158;2023-02-11T07:54:18;28.08;;;13.13;;
69754;SDS011;57023;52.218;5.158;2023-02-11T07:56:43;23.55;;;12.48;;
69754;SDS011;57023;52.218;5.158;2023-02-11T07:59:09;19.85;;;11.10;;
69754;SDS011;57023;52.218;5.158;2023-02-11T08:01:35;21.80;;;11.60;;
69754;SDS011;57023;52.218;5.158;2023-02-11T08:04:00;25.00;;;12.32;;
69754;SDS011;57023;52.218;5.158;2023-02-11T08:06:27;27.13;;;12.45;;
69754;SDS011;57023;52.218;5.158;2023-02-11T08:08:54;24.10;;;12.23;;
69754;SDS011;57023;52.218;5.158;2023-02-11T08:11:20;22.98;;;11.77;;
69754;SDS011;57023;52.218;5.158;2023-02-11T08:13:48;25.23;;;13.73;;
69754;SDS011;57023;52.218;5.158;2023-02-11T08:16:18;20.98;;;12.23;;
69754;SDS011;57023;52.218;5.158;2023-02-11T08:19:06;24.65;;;11.68;;
69754;SDS011;57023;52.218;5.158;2023-02-11T08:21:34;20.15;;;10.63;;
69754;SDS011;57023;52.218;5.158;2023-02-11T08:24:00;21.80;;;10.73;;
69754;SDS011;57023;52.218;5.158;2023-02-11T08:26:27;17.52;;;9.65;;
69754;SDS011;57023;52.218;5.158;2023-02-11T08:28:56;24.67;;;12.20;;
69754;SDS011;57023;52.218;5.158;2023-02-11T08:31:23;24.63;;;13.23;;
69754;SDS011;57023;52.218;5.158;2023-02-11T08:33:51;23.08;;;12.40;;
69754;SDS011;57023;52.218;5.158;2023-02-11T08:36:18;23.73;;;12.97;;
69754;SDS011;57023;52.218;5.158;2023-02-11T08:38:45;22.35;;;12.15;;
69754;SDS011;57023;52.218;5.158;2023-02-11T08:41:11;22.90;;;12.15;;
69754;SDS011;57023;52.218;5.158;2023-02-11T08:46:06;23.08;;;12.98;;
69754;SDS011;57023;52.218;5.158;2023-02-11T08:48:31;25.83;;;13.43;;
69754;SDS011;57023;52.218;5.158;2023-02-11T08:50:57;23.02;;;12.30;;
69754;SDS011;57023;52.218;5.158;2023-02-11T08:53:23;23.38;;;13.18;;
69754;SDS011;57023;52.218;5.158;2023-02-11T08:55:52;21.58;;;12.40;;
69754;SDS011;57023;52.218;5.158;2023-02-11T08:58:18;22.42;;;12.07;;
69754;SDS011;57023;52.218;5.158;2023-02-11T09:00:45;21.83;;;12.20;;
69754;SDS011;57023;52.218;5.158;2023-02-11T09:03:11;22.83;;;12.63;;
69754;SDS011;57023;52.218;5.158;2023-02-11T09:05:43;21.20;;;11.90;;
69754;SDS011;57023;52.218;5.158;2023-02-11T09:08:10;23.27;;;12.20;;
69754;SDS011;57023;52.218;5.158;2023-02-11T09:10:36;21.70;;;12.90;;
69754;SDS011;57023;52.218;5.158;2023-02-11T09:13:02;23.13;;;11.40;;
69754;SDS011;57023;52.218;5.158;2023-02-11T09:15:27;20.58;;;10.85;;
69754;SDS011;57023;52.218;5.158;2023-02-11T09:17:52;21.08;;;12.35;;
69754;SDS011;57023;52.218;5.158;2023-02-11T09:20:18;22.92;;;12.02;;
69754;SDS011;57023;52.218;5.158;2023-02-11T09:22:43;22.80;;;12.65;;
69754;SDS011;57023;52.218;5.158;2023-02-11T09:25:09;20.65;;;11.13;;
69754;SDS011;57023;52.218;5.158;2023-02-11T09:27:34;23.23;;;12.43;;
69754;SDS011;57023;52.218;5.158;2023-02-11T09:29:59;23.13;;;12.05;;
69754;SDS011;57023;52.218;5.158;2023-02-11T09:32:25;22.20;;;11.73;;
69754;SDS011;57023;52.218;5.158;2023-02-11T09:34:50;20.10;;;12.23;;
69754;SDS011;57023;52.218;5.158;2023-02-11T09:37:15;21.50;;;12.32;;
69754;SDS011;57023;52.218;5.158;2023-02-11T09:39:41;19.50;;;11.65;;
69754;SDS011;57023;52.218;5.158;2023-02-11T09:45:04;21.33;;;11.40;;
69754;SDS011;57023;52.218;5.158;2023-02-11T09:47:38;15.50;;;8.93;;
69754;SDS011;57023;52.218;5.158;2023-02-11T09:50:12;17.85;;;12.55;;
69754;SDS011;57023;52.218;5.158;2023-02-11T09:52:46;17.42;;;11.48;;
69754;SDS011;57023;52.218;5.158;2023-02-11T09:55:20;18.70;;;10.85;;
69754;SDS011;57023;52.218;5.158;2023-02-11T09:57:46;19.27;;;11.52;;
69754;SDS011;57023;52.218;5.158;2023-02-11T10:00:17;16.90;;;9.25;;
69754;SDS011;57023;52.218;5.158;2023-02-11T10:05:41;18.08;;;10.75;;
69754;SDS011;57023;52.218;5.158;2023-02-11T10:10:51;16.42;;;10.45;;
69754;SDS011;57023;52.218;5.158;2023-02-11T10:24:26;19.55;;;10.75;;
69754;SDS011;57023;52.218;5.158;2023-02-11T10:26:53;16.80;;;10.45;;
69754;SDS011;57023;52.218;5.158;2023-02-11T10:32:23;19.05;;;11.80;;
69754;SDS011;57023;52.218;5.158;2023-02-11T10:34:55;15.75;;;10.73;;
69754;SDS011;57023;52.218;5.158;2023-02-11T10:37:23;18.15;;;10.40;;
69754;SDS011;57023;52.218;5.158;2023-02-11T10:39:48;16.63;;;10.52;;
69754;SDS011;57023;52.218;5.158;2023-02-11T10:42:13;18.15;;;10.90;;
69754;SDS011;57023;52.218;5.158;2023-02-11T10:44:45;17.20;;;11.15;;
69754;SDS011;57023;52.218;5.158;2023-02-11T10:47:23;16.58;;;11.27;;
69754;SDS011;57023;52.218;5.158;2023-02-11T10:49:50;16.27;;;10.85;;
69754;SDS011;57023;52.218;5.158;2023-02-11T10:54:55;14.37;;;10.17;;
69754;SDS011;57023;52.218;5.158;2023-02-11T10:57:26;12.98;;;8.63;;
69754;SDS011;57023;52.218;5.158;2023-02-11T10:59:58;12.50;;;9.43;;
69754;SDS011;57023;52.218;5.158;2023-02-11T11:02:29;11.93;;;8.40;;
69754;SDS011;57023;52.218;5.158;2023-02-11T11:05:00;12.15;;;7.63;;
69754;SDS011;57023;52.218;5.158;2023-02-11T11:07:29;10.20;;;6.95;;
69754;SDS011;57023;52.218;5.158;2023-02-11T11:10:06;11.38;;;6.53;;
69754;SDS011;57023;52.218;5.158;2023-02-11T11:12:49;10.45;;;6.80;;
69754;SDS011;57023;52.218;5.158;2023-02-11T11:15:22;9.52;;;6.53;;
69754;SDS011;57023;52.218;5.158;2023-02-11T11:17:49;9.02;;;6.50;;
69754;SDS011;57023;52.218;5.158;2023-02-11T11:20:22;9.00;;;6.57;;
69754;SDS011;57023;52.218;5.158;2023-02-11T11:22:51;10.93;;;6.53;;
69754;SDS011;57023;52.218;5.158;2023-02-11T11:25:39;9.32;;;6.32;;
69754;SDS011;57023;52.218;5.158;2023-02-11T11:28:15;12.63;;;6.30;;
69754;SDS011;57023;52.218;5.158;2023-02-11T11:30:43;9.67;;;6.47;;
69754;SDS011;57023;52.218;5.158;2023-02-11T11:33:17;10.43;;;6.03;;
69754;SDS011;57023;52.218;5.158;2023-02-11T11:35:54;10.98;;;6.22;;
69754;SDS011;57023;52.218;5.158;2023-02-11T11:38:26;10.13;;;5.93;;
69754;SDS011;57023;52.218;5.158;2023-02-11T11:46:37;9.18;;;5.93;;
69754;SDS011;57023;52.218;5.158;2023-02-11T11:49:06;9.20;;;6.40;;
69754;SDS011;57023;52.218;5.158;2023-02-11T11:54:42;9.38;;;5.63;;
69754;SDS011;57023;52.218;5.158;2023-02-11T11:57:16;8.25;;;5.80;;
69754;SDS011;57023;52.218;5.158;2023-02-11T11:59:42;11.10;;;6.47;;
69754;SDS011;57023;52.218;5.158;2023-02-11T12:02:12;9.60;;;6.35;;
69754;SDS011;57023;52.218;5.158;2023-02-11T12:05:02;10.18;;;6.32;;
69754;SDS011;57023;52.218;5.158;2023-02-11T12:10:42;8.57;;;5.80;;
69754;SDS011;57023;52.218;5.158;2023-02-11T12:13:15;7.43;;;5.68;;
69754;SDS011;57023;52.218;5.158;2023-02-11T12:16:14;11.63;;;5.82;;
69754;SDS011;57023;52.218;5.158;2023-02-11T12:19:26;9.15;;;5.65;;
69754;SDS011;57023;52.218;5.158;2023-02-11T12:27:48;8.75;;;5.82;;
69754;SDS011;57023;52.218;5.158;2023-02-11T12:30:29;8.82;;;5.68;;
69754;SDS011;57023;52.218;5.158;2023-02-11T12:33:14;8.20;;;6.00;;
69754;SDS011;57023;52.218;5.158;2023-02-11T12:36:31;8.38;;;5.70;;
69754;SDS011;57023;52.218;5.158;2023-02-11T12:44:24;8.45;;;5.28;;
69754;SDS011;57023;52.218;5.158;2023-02-11T12:47:02;7.03;;;5.32;;
69754;SDS011;57023;52.218;5.158;2023-02-11T12:49:47;7.97;;;5.30;;
69754;SDS011;57023;52.218;5.158;2023-02-11T12:55:01;7.60;;;5.73;;
69754;SDS011;57023;52.218;5.158;2023-02-11T12:57:32;7.85;;;5.20;;
69754;SDS011;57023;52.218;5.158;2023-02-11T13:05:13;10.10;;;5.72;;
69754;SDS011;57023;52.218;5.158;2023-02-11T13:07:42;7.65;;;5.30;;
69754;SDS011;57023;52.218;5.158;2023-02-11T13:12:37;7.65;;;5.30;;
69754;SDS011;57023;52.218;5.158;2023-02-11T13:15:21;8.00;;;5.20;;
69754;SDS011;57023;52.218;5.158;2023-02-11T13:17:56;6.65;;;4.93;;
69754;SDS011;57023;52.218;5.158;2023-02-11T13:25:47;8.70;;;5.15;;
69754;SDS011;57023;52.218;5.158;2023-02-11T13:28:34;9.13;;;5.63;;
69754;SDS011;57023;52.218;5.158;2023-02-11T13:31:05;9.05;;;5.18;;
69754;SDS011;57023;52.218;5.158;2023-02-11T13:38:24;8.57;;;5.10;;
69754;SDS011;57023;52.218;5.158;2023-02-11T13:41:37;8.35;;;5.55;;
69754;SDS011;57023;52.218;5.158;2023-02-11T13:43:41;7.85;;;5.40;;
69754;SDS011;57023;52.218;5.158;2023-02-11T13:46:07;7.68;;;5.20;;
69754;SDS011;57023;52.218;5.158;2023-02-11T13:48:35;7.43;;;5.00;;
69754;SDS011;57023;52.218;5.158;2023-02-11T13:53:27;10.00;;;5.22;;
69754;SDS011;57023;52.218;5.158;2023-02-11T13:56:07;9.50;;;5.45;;
69754;SDS011;57023;52.218;5.158;2023-02-11T13:58:45;7.95;;;4.93;;
69754;SDS011;57023;52.218;5.158;2023-02-11T14:01:13;7.65;;;4.70;;
69754;SDS011;57023;52.218;5.158;2023-02-11T14:04:20;8.48;;;5.35;;
69754;SDS011;57023;52.218;5.158;2023-02-11T14:07:24;9.50;;;5.10;;
69754;SDS011;57023;52.218;5.158;2023-02-11T14:10:47;7.63;;;5.32;;
69754;SDS011;57023;52.218;5.158;2023-02-11T14:13:23;7.95;;;5.10;;
69754;SDS011;57023;52.218;5.158;2023-02-11T14:16:06;7.33;;;5.43;;
69754;SDS011;57023;52.218;5.158;2023-02-11T14:21:15;7.93;;;4.82;;
69754;SDS011;57023;52.218;5.158;2023-02-11T14:23:43;7.82;;;5.40;;
69754;SDS011;57023;52.218;5.158;2023-02-11T14:28:43;8.93;;;5.55;;
69754;SDS011;57023;52.218;5.158;2023-02-11T14:31:17;7.75;;;5.20;;
69754;SDS011;57023;52.218;5.158;2023-02-11T14:36:34;7.45;;;4.72;;
69754;SDS011;57023;52.218;5.158;2023-02-11T14:41:39;8.23;;;4.65;;
69754;SDS011;57023;52.218;5.158;2023-02-11T14:44:11;9.07;;;5.35;;
69754;SDS011;57023;52.218;5.158;2023-02-11T14:46:38;7.40;;;5.00;;
69754;SDS011;57023;52.218;5.158;2023-02-11T14:49:12;8.35;;;5.10;;
69754;SDS011;57023;52.218;5.158;2023-02-11T14:51:44;7.53;;;5.50;;
69754;SDS011;57023;52.218;5.158;2023-02-11T14:54:11;7.13;;;4.93;;
69754;SDS011;57023;52.218;5.158;2023-02-11T14:56:40;11.63;;;5.28;;
69754;SDS011;57023;52.218;5.158;2023-02-11T14:59:15;9.25;;;5.38;;
69754;SDS011;57023;52.218;5.158;2023-02-11T15:01:44;10.73;;;5.28;;
69754;SDS011;57023;52.218;5.158;2023-02-11T15:04:30;8.13;;;5.00;;
69754;SDS011;57023;52.218;5.158;2023-02-11T15:06:58;7.50;;;4.57;;
69754;SDS011;57023;52.218;5.158;2023-02-11T15:09:41;8.60;;;5.07;;
69754;SDS011;57023;52.218;5.158;2023-02-11T15:12:24;7.95;;;4.78;;
69754;SDS011;57023;52.218;5.158;2023-02-11T15:14:52;7.82;;;4.75;;
69754;SDS011;57023;52.218;5.158;2023-02-11T15:17:20;9.70;;;5.40;;
69754;SDS011;57023;52.218;5.158;2023-02-11T15:19:50;7.65;;;4.57;;
69754;SDS011;57023;52.218;5.158;2023-02-11T15:22:25;7.65;;;4.97;;
69754;SDS011;57023;52.218;5.158;2023-02-11T15:25:02;7.50;;;4.72;;
69754;SDS011;57023;52.218;5.158;2023-02-11T15:27:37;7.53;;;4.80;;
69754;SDS011;57023;52.218;5.158;2023-02-11T15:30:16;10.40;;;5.40;;
69754;SDS011;57023;52.218;5.158;2023-02-11T15:32:53;8.43;;;5.55;;
69754;SDS011;57023;52.218;5.158;2023-02-11T15:35:27;11.07;;;7.85;;
69754;SDS011;57023;52.218;5.158;2023-02-11T15:37:55;8.38;;;4.95;;
69754;SDS011;57023;52.218;5.158;2023-02-11T15:40:28;7.67;;;4.83;;
69754;SDS011;57023;52.218;5.158;2023-02-11T15:43:00;8.85;;;5.30;;
69754;SDS011;57023;52.218;5.158;2023-02-11T15:45:34;7.47;;;4.72;;
69754;SDS011;57023;52.218;5.158;2023-02-11T15:50:38;10.70;;;4.80;;
69754;SDS011;57023;52.218;5.158;2023-02-11T15:53:39;7.43;;;4.68;;
69754;SDS011;57023;52.218;5.158;2023-02-11T15:58:36;8.10;;;4.50;;
69754;SDS011;57023;52.218;5.158;2023-02-11T16:01:02;8.55;;;5.32;;
69754;SDS011;57023;52.218;5.158;2023-02-11T16:03:28;8.95;;;4.95;;
69754;SDS011;57023;52.218;5.158;2023-02-11T16:05:56;7.60;;;5.03;;
69754;SDS011;57023;52.218;5.158;2023-02-11T16:08:40;8.98;;;4.93;;
69754;SDS011;57023;52.218;5.158;2023-02-11T16:11:17;7.75;;;5.07;;
69754;SDS011;57023;52.218;5.158;2023-02-11T16:13:48;8.35;;;4.97;;
69754;SDS011;57023;52.218;5.158;2023-02-11T16:16:16;10.35;;;5.20;;
69754;SDS011;57023;52.218;5.158;2023-02-11T16:18:43;8.65;;;5.10;;
69754;SDS011;57023;52.218;5.158;2023-02-11T16:21:13;7.57;;;5.00;;
69754;SDS011;57023;52.218;5.158;2023-02-11T16:23:40;7.82;;;5.15;;
69754;SDS011;57023;52.218;5.158;2023-02-11T16:26:09;9.63;;;5.55;;
69754;SDS011;57023;52.218;5.158;2023-02-11T16:31:41;13.27;;;7.63;;
69754;SDS011;57023;52.218;5.158;2023-02-11T16:34:12;9.73;;;6.50;;
69754;SDS011;57023;52.218;5.158;2023-02-11T16:36:38;8.32;;;5.50;;
69754;SDS011;57023;52.218;5.158;2023-02-11T16:39:04;10.63;;;5.55;;
69754;SDS011;57023;52.218;5.158;2023-02-11T16:41:29;7.80;;;4.50;;
69754;SDS011;57023;52.218;5.158;2023-02-11T16:43:57;10.45;;;6.43;;
69754;SDS011;57023;52.218;5.158;2023-02-11T16:46:23;11.48;;;7.10;;
69754;SDS011;57023;52.218;5.158;2023-02-11T16:48:48;10.43;;;7.25;;
69754;SDS011;57023;52.218;5.158;2023-02-11T16:51:13;9.02;;;6.57;;